sensor_id;sensor_type;location;lat;lon;timestamp;P1;durP1;ratioP1;P2;durP2;ratioP2
25129;SDS011;13308;50.860;13.664;2022-08-21T04:56:11;3.22;;;2.92;;
25129;SDS011;13308;50.860;13.664;2022-08-21T04:58:44;4.20;;;3.80;;
25129;SDS011;13308;50.860;13.664;2022-08-21T05:01:11;3.70;;;3.33;;
25129;SDS011;13308;50.860;13.664;2022-08-21T05:03:40;3.92;;;3.63;;
25129;SDS011;13308;50.860;13.664;2022-08-21T05:06:07;4.40;;;3.67;;
25129;SDS011;13308;50.860;13.664;2022-08-21T05:08:35;3.55;;;3.25;;
25129;SDS011;13308;50.860;13.664;2022-08-21T05:11:03;3.78;;;3.47;;
25129;SDS011;13308;50.860;13.664;2022-08-21T05:13:29;4.03;;;3.63;;
25129;SDS011;13308;50.860;13.664;2022-08-21T05:15:54;4.13;;;3.72;;
25129;SDS011;13308;50.860;13.664;2022-08-21T05:18:20;4.03;;;3.72;;
25129;SDS011;13308;50.860;13.664;2022-08-21T05:20:46;3.42;;;3.15;;
25129;SDS011;13308;50.860;13.664;2022-08-21T05:23:12;4.40;;;4.00;;
25129;SDS011;13308;50.860;13.664;2022-08-21T05:25:39;4.43;;;4.03;;
25129;SDS011;13308;50.860;13.664;2022-08-21T05:28:05;4.57;;;4.18;;
25129;SDS011;13308;50.860;13.664;2022-08-21T05:30:31;5.13;;;4.63;;
25129;SDS011;13308;50.860;13.664;2022-08-21T05:32:57;4.80;;;4.40;;
25129;SDS011;13308;50.860;13.664;2022-08-21T05:35:24;4.60;;;4.20;;
25129;SDS011;13308;50.860;13.664;2022-08-21T05:37:50;4.20;;;3.55;;
25129;SDS011;13308;50.860;13.664;2022-08-21T05:40:15;4.78;;;4.38;;
25129;SDS011;13308;50.860;13.664;2022-08-21T05:42:41;4.57;;;4.18;;
25129;SDS011;13308;50.860;13.664;2022-08-21T05:45:06;4.55;;;4.15;;
25129;SDS011;13308;50.860;13.664;2022-08-21T05:47:31;5.75;;;4.82;;
25129;SDS011;13308;50.860;13.664;2022-08-21T05:49:57;5.78;;;4.38;;
25129;SDS011;13308;50.860;13.664;2022-08-21T05:52:22;5.97;;;4.65;;
25129;SDS011;13308;50.860;13.664;2022-08-21T05:54:48;5.50;;;5.00;;
25129;SDS011;13308;50.860;13.664;2022-08-21T05:57:13;4.97;;;4.47;;
25129;SDS011;13308;50.860;13.664;2022-08-21T05:59:39;5.50;;;5.00;;
25129;SDS011;13308;50.860;13.664;2022-08-21T06:02:04;5.78;;;5.07;;
25129;SDS011;13308;50.860;13.664;2022-08-21T06:04:30;7.32;;;5.50;;
25129;SDS011;13308;50.860;13.664;2022-08-21T06:06:55;6.00;;;5.40;;
25129;SDS011;13308;50.860;13.664;2022-08-21T06:09:21;6.35;;;5.75;;
25129;SDS011;13308;50.860;13.664;2022-08-21T06:11:46;6.63;;;5.97;;
25129;SDS011;13308;50.860;13.664;2022-08-21T06:14:15;6.78;;;6.07;;
25129;SDS011;13308;50.860;13.664;2022-08-21T06:16:41;6.43;;;5.82;;
25129;SDS011;13308;50.860;13.664;2022-08-21T06:19:06;7.65;;;6.32;;
25129;SDS011;13308;50.860;13.664;2022-08-21T06:21:32;7.47;;;6.78;;
25129;SDS011;13308;50.860;13.664;2022-08-21T06:23:57;11.32;;;7.22;;
25129;SDS011;13308;50.860;13.664;2022-08-21T06:26:23;6.80;;;6.10;;
25129;SDS011;13308;50.860;13.664;2022-08-21T06:28:48;7.57;;;6.22;;
25129;SDS011;13308;50.860;13.664;2022-08-21T06:31:18;7.45;;;6.60;;
25129;SDS011;13308;50.860;13.664;2022-08-21T06:33:47;9.30;;;7.25;;
25129;SDS011;13308;50.860;13.664;2022-08-21T06:36:13;15.95;;;10.93;;
25129;SDS011;13308;50.860;13.664;2022-08-21T06:38:39;17.38;;;12.95;;
25129;SDS011;13308;50.860;13.664;2022-08-21T06:41:05;22.05;;;14.30;;
25129;SDS011;13308;50.860;13.664;2022-08-21T06:43:31;19.65;;;14.35;;
25129;SDS011;13308;50.860;13.664;2022-08-21T06:45:56;18.63;;;13.00;;
25129;SDS011;13308;50.860;13.664;2022-08-21T06:48:21;19.08;;;13.50;;
25129;SDS011;13308;50.860;13.664;2022-08-21T06:50:47;18.70;;;13.48;;
25129;SDS011;13308;50.860;13.664;2022-08-21T06:53:14;23.70;;;14.10;;
25129;SDS011;13308;50.860;13.664;2022-08-21T06:55:41;20.80;;;13.95;;
25129;SDS011;13308;50.860;13.664;2022-08-21T06:58:07;20.13;;;13.93;;
25129;SDS011;13308;50.860;13.664;2022-08-21T07:00:34;16.65;;;12.82;;
25129;SDS011;13308;50.860;13.664;2022-08-21T07:02:59;20.05;;;13.18;;
25129;SDS011;13308;50.860;13.664;2022-08-21T07:05:25;17.30;;;12.70;;
25129;SDS011;13308;50.860;13.664;2022-08-21T07:07:51;16.40;;;11.93;;
25129;SDS011;13308;50.860;13.664;2022-08-21T07:10:17;15.82;;;12.80;;
25129;SDS011;13308;50.860;13.664;2022-08-21T07:12:43;18.70;;;11.13;;
25129;SDS011;13308;50.860;13.664;2022-08-21T07:15:08;19.20;;;13.63;;
25129;SDS011;13308;50.860;13.664;2022-08-21T07:17:34;15.77;;;11.73;;
25129;SDS011;13308;50.860;13.664;2022-08-21T07:19:59;17.55;;;12.80;;
25129;SDS011;13308;50.860;13.664;2022-08-21T07:22:25;15.25;;;11.93;;
25129;SDS011;13308;50.860;13.664;2022-08-21T07:24:52;14.07;;;10.98;;
25129;SDS011;13308;50.860;13.664;2022-08-21T07:27:18;14.00;;;11.88;;
25129;SDS011;13308;50.860;13.664;2022-08-21T07:29:43;14.30;;;11.50;;
25129;SDS011;13308;50.860;13.664;2022-08-21T07:32:09;15.85;;;12.15;;
25129;SDS011;13308;50.860;13.664;2022-08-21T07:34:34;14.73;;;12.45;;
25129;SDS011;13308;50.860;13.664;2022-08-21T07:37:00;14.85;;;12.18;;
25129;SDS011;13308;50.860;13.664;2022-08-21T07:39:25;13.30;;;11.30;;
25129;SDS011;13308;50.860;13.664;2022-08-21T07:41:50;15.02;;;11.65;;
25129;SDS011;13308;50.860;13.664;2022-08-21T07:44:16;14.02;;;11.93;;
25129;SDS011;13308;50.860;13.664;2022-08-21T07:46:42;12.45;;;10.82;;
25129;SDS011;13308;50.860;13.664;2022-08-21T07:49:07;15.82;;;11.52;;
25129;SDS011;13308;50.860;13.664;2022-08-21T07:51:32;14.07;;;11.07;;
25129;SDS011;13308;50.860;13.664;2022-08-21T07:53:58;16.10;;;11.95;;
25129;SDS011;13308;50.860;13.664;2022-08-21T07:56:25;15.93;;;12.07;;
25129;SDS011;13308;50.860;13.664;2022-08-21T07:58:51;14.95;;;11.40;;
25129;SDS011;13308;50.860;13.664;2022-08-21T08:01:16;16.25;;;11.68;;
25129;SDS011;13308;50.860;13.664;2022-08-21T08:03:43;13.48;;;11.55;;
25129;SDS011;13308;50.860;13.664;2022-08-21T08:06:08;12.75;;;11.45;;
25129;SDS011;13308;50.860;13.664;2022-08-21T08:08:37;15.13;;;11.65;;
25129;SDS011;13308;50.860;13.664;2022-08-21T08:11:06;15.75;;;11.25;;
25129;SDS011;13308;50.860;13.664;2022-08-21T08:13:31;16.45;;;12.10;;
25129;SDS011;13308;50.860;13.664;2022-08-21T08:15:57;15.25;;;11.88;;
25129;SDS011;13308;50.860;13.664;2022-08-21T08:18:22;13.18;;;10.60;;
25129;SDS011;13308;50.860;13.664;2022-08-21T08:20:48;13.77;;;11.40;;
25129;SDS011;13308;50.860;13.664;2022-08-21T08:23:13;12.88;;;10.93;;
25129;SDS011;13308;50.860;13.664;2022-08-21T08:25:39;13.93;;;11.07;;
25129;SDS011;13308;50.860;13.664;2022-08-21T08:28:05;13.88;;;11.00;;
25129;SDS011;13308;50.860;13.664;2022-08-21T08:30:31;15.13;;;10.93;;
25129;SDS011;13308;50.860;13.664;2022-08-21T08:32:57;12.10;;;10.15;;
25129;SDS011;13308;50.860;13.664;2022-08-21T08:35:22;14.00;;;10.80;;
25129;SDS011;13308;50.860;13.664;2022-08-21T08:37:50;11.65;;;10.20;;
25129;SDS011;13308;50.860;13.664;2022-08-21T08:40:32;13.70;;;10.40;;
25129;SDS011;13308;50.860;13.664;2022-08-21T08:43:08;11.93;;;10.48;;
25129;SDS011;13308;50.860;13.664;2022-08-21T08:45:36;13.98;;;10.90;;
25129;SDS011;13308;50.860;13.664;2022-08-21T08:48:04;14.30;;;10.43;;
25129;SDS011;13308;50.860;13.664;2022-08-21T08:50:40;11.95;;;10.15;;
25129;SDS011;13308;50.860;13.664;2022-08-21T08:53:17;13.50;;;10.52;;
25129;SDS011;13308;50.860;13.664;2022-08-21T08:55:48;12.50;;;10.13;;
25129;SDS011;13308;50.860;13.664;2022-08-21T08:58:23;11.40;;;10.18;;
25129;SDS011;13308;50.860;13.664;2022-08-21T09:01:00;10.35;;;9.35;;
25129;SDS011;13308;50.860;13.664;2022-08-21T09:03:28;11.15;;;9.63;;
25129;SDS011;13308;50.860;13.664;2022-08-21T09:06:00;14.27;;;10.15;;
25129;SDS011;13308;50.860;13.664;2022-08-21T09:17:14;12.88;;;9.65;;
25129;SDS011;13308;50.860;13.664;2022-08-21T09:20:11;13.48;;;10.35;;
25129;SDS011;13308;50.860;13.664;2022-08-21T09:22:58;12.95;;;10.80;;
25129;SDS011;13308;50.860;13.664;2022-08-21T09:25:34;11.55;;;10.25;;
25129;SDS011;13308;50.860;13.664;2022-08-21T09:28:14;12.05;;;10.82;;
25129;SDS011;13308;50.860;13.664;2022-08-21T09:30:40;12.02;;;9.88;;
25129;SDS011;13308;50.860;13.664;2022-08-21T09:33:06;11.95;;;9.88;;
25129;SDS011;13308;50.860;13.664;2022-08-21T09:35:32;10.27;;;9.18;;
25129;SDS011;13308;50.860;13.664;2022-08-21T09:38:04;11.70;;;8.95;;
25129;SDS011;13308;50.860;13.664;2022-08-21T09:43:05;10.55;;;9.60;;
25129;SDS011;13308;50.860;13.664;2022-08-21T09:45:37;8.25;;;7.55;;
25129;SDS011;13308;50.860;13.664;2022-08-21T09:48:23;9.27;;;7.72;;
25129;SDS011;13308;50.860;13.664;2022-08-21T09:50:50;9.13;;;6.03;;
25129;SDS011;13308;50.860;13.664;2022-08-21T09:53:24;7.20;;;6.18;;
25129;SDS011;13308;50.860;13.664;2022-08-21T09:55:53;5.75;;;5.20;;
25129;SDS011;13308;50.860;13.664;2022-08-21T09:58:41;6.15;;;5.30;;
25129;SDS011;13308;50.860;13.664;2022-08-21T10:01:12;7.57;;;5.75;;
25129;SDS011;13308;50.860;13.664;2022-08-21T10:03:43;6.20;;;5.60;;
25129;SDS011;13308;50.860;13.664;2022-08-21T10:06:08;5.65;;;5.05;;
25129;SDS011;13308;50.860;13.664;2022-08-21T10:08:40;5.47;;;4.72;;
25129;SDS011;13308;50.860;13.664;2022-08-21T10:11:10;5.50;;;4.97;;
25129;SDS011;13308;50.860;13.664;2022-08-21T10:16:51;5.63;;;3.80;;
25129;SDS011;13308;50.860;13.664;2022-08-21T10:19:38;4.93;;;3.85;;
25129;SDS011;13308;50.860;13.664;2022-08-21T10:22:28;4.10;;;3.70;;
25129;SDS011;13308;50.860;13.664;2022-08-21T10:25:02;4.72;;;4.32;;
25129;SDS011;13308;50.860;13.664;2022-08-21T10:30:39;4.80;;;3.67;;
25129;SDS011;13308;50.860;13.664;2022-08-21T10:36:05;6.00;;;3.30;;
25129;SDS011;13308;50.860;13.664;2022-08-21T10:38:42;6.50;;;3.38;;
25129;SDS011;13308;50.860;13.664;2022-08-21T10:44:35;5.13;;;3.85;;
25129;SDS011;13308;50.860;13.664;2022-08-21T10:50:23;4.25;;;3.85;;
25129;SDS011;13308;50.860;13.664;2022-08-21T10:55:55;4.85;;;3.72;;
25129;SDS011;13308;50.860;13.664;2022-08-21T10:58:30;3.83;;;3.33;;
25129;SDS011;13308;50.860;13.664;2022-08-21T11:01:09;4.32;;;3.50;;
25129;SDS011;13308;50.860;13.664;2022-08-21T11:03:46;3.85;;;3.30;;
25129;SDS011;13308;50.860;13.664;2022-08-21T11:06:23;3.40;;;3.10;;
25129;SDS011;13308;50.860;13.664;2022-08-21T11:08:53;7.22;;;3.20;;
25129;SDS011;13308;50.860;13.664;2022-08-21T11:11:29;3.72;;;3.30;;
25129;SDS011;13308;50.860;13.664;2022-08-21T11:14:01;4.97;;;3.72;;
25129;SDS011;13308;50.860;13.664;2022-08-21T11:16:37;4.78;;;3.05;;
25129;SDS011;13308;50.860;13.664;2022-08-21T11:19:06;5.57;;;3.40;;
25129;SDS011;13308;50.860;13.664;2022-08-21T11:21:42;3.55;;;2.85;;
25129;SDS011;13308;50.860;13.664;2022-08-21T11:24:38;4.45;;;2.70;;
25129;SDS011;13308;50.860;13.664;2022-08-21T11:27:25;3.63;;;2.80;;
25129;SDS011;13308;50.860;13.664;2022-08-21T11:29:58;5.47;;;2.92;;
25129;SDS011;13308;50.860;13.664;2022-08-21T11:32:31;3.10;;;2.45;;
25129;SDS011;13308;50.860;13.664;2022-08-21T11:35:10;3.70;;;2.83;;
25129;SDS011;13308;50.860;13.664;2022-08-21T11:40:52;4.15;;;2.75;;
25129;SDS011;13308;50.860;13.664;2022-08-21T11:49:17;3.75;;;2.63;;
25129;SDS011;13308;50.860;13.664;2022-08-21T11:51:47;3.50;;;2.70;;
25129;SDS011;13308;50.860;13.664;2022-08-21T11:54:26;3.63;;;2.55;;
25129;SDS011;13308;50.860;13.664;2022-08-21T11:57:05;4.20;;;2.78;;
25129;SDS011;13308;50.860;13.664;2022-08-21T11:59:40;6.30;;;2.97;;
25129;SDS011;13308;50.860;13.664;2022-08-21T12:02:12;3.67;;;3.13;;
25129;SDS011;13308;50.860;13.664;2022-08-21T12:05:03;5.07;;;3.00;;
25129;SDS011;13308;50.860;13.664;2022-08-21T12:07:38;4.78;;;2.83;;
25129;SDS011;13308;50.860;13.664;2022-08-21T12:10:07;4.65;;;2.65;;
25129;SDS011;13308;50.860;13.664;2022-08-21T12:12:37;5.78;;;3.40;;
25129;SDS011;13308;50.860;13.664;2022-08-21T12:15:07;3.63;;;2.70;;
25129;SDS011;13308;50.860;13.664;2022-08-21T12:17:40;5.43;;;2.75;;
25129;SDS011;13308;50.860;13.664;2022-08-21T12:22:41;3.95;;;2.70;;
25129;SDS011;13308;50.860;13.664;2022-08-21T12:25:17;6.35;;;2.33;;
25129;SDS011;13308;50.860;13.664;2022-08-21T12:27:45;2.60;;;2.40;;
25129;SDS011;13308;50.860;13.664;2022-08-21T12:32:56;3.10;;;2.35;;
25129;SDS011;13308;50.860;13.664;2022-08-21T12:35:25;3.33;;;2.90;;
25129;SDS011;13308;50.860;13.664;2022-08-21T12:40:58;5.53;;;2.47;;
25129;SDS011;13308;50.860;13.664;2022-08-21T12:46:06;2.92;;;2.60;;
25129;SDS011;13308;50.860;13.664;2022-08-21T12:48:45;4.70;;;3.00;;
25129;SDS011;13308;50.860;13.664;2022-08-21T12:51:17;5.32;;;2.70;;
25129;SDS011;13308;50.860;13.664;2022-08-21T12:53:56;4.32;;;2.83;;
25129;SDS011;13308;50.860;13.664;2022-08-21T12:56:24;2.90;;;2.63;;
25129;SDS011;13308;50.860;13.664;2022-08-21T12:58:57;2.65;;;2.45;;
25129;SDS011;13308;50.860;13.664;2022-08-21T13:01:31;4.18;;;3.00;;
25129;SDS011;13308;50.860;13.664;2022-08-21T13:04:10;2.83;;;2.50;;
25129;SDS011;13308;50.860;13.664;2022-08-21T13:06:41;2.50;;;2.30;;
25129;SDS011;13308;50.860;13.664;2022-08-21T13:09:11;3.40;;;2.42;;
25129;SDS011;13308;50.860;13.664;2022-08-21T13:11:40;3.78;;;3.05;;
25129;SDS011;13308;50.860;13.664;2022-08-21T13:14:10;4.22;;;2.50;;
25129;SDS011;13308;50.860;13.664;2022-08-21T13:16:52;7.10;;;2.38;;
25129;SDS011;13308;50.860;13.664;2022-08-21T13:19:18;5.43;;;2.22;;
25129;SDS011;13308;50.860;13.664;2022-08-21T13:21:45;4.38;;;2.40;;
25129;SDS011;13308;50.860;13.664;2022-08-21T13:24:22;4.57;;;2.10;;
25129;SDS011;13308;50.860;13.664;2022-08-21T13:26:49;2.72;;;2.10;;
25129;SDS011;13308;50.860;13.664;2022-08-21T13:29:16;3.17;;;1.67;;
25129;SDS011;13308;50.860;13.664;2022-08-21T13:31:54;2.50;;;2.30;;
25129;SDS011;13308;50.860;13.664;2022-08-21T13:34:25;2.70;;;2.33;;
25129;SDS011;13308;50.860;13.664;2022-08-21T13:36:57;2.38;;;2.15;;
25129;SDS011;13308;50.860;13.664;2022-08-21T13:39:25;3.42;;;2.30;;
25129;SDS011;13308;50.860;13.664;2022-08-21T13:41:52;2.10;;;1.90;;
25129;SDS011;13308;50.860;13.664;2022-08-21T13:44:22;2.30;;;1.80;;
25129;SDS011;13308;50.860;13.664;2022-08-21T13:47:00;3.72;;;1.70;;
25129;SDS011;13308;50.860;13.664;2022-08-21T13:49:33;2.53;;;1.80;;
25129;SDS011;13308;50.860;13.664;2022-08-21T13:52:00;2.22;;;1.88;;
25129;SDS011;13308;50.860;13.664;2022-08-21T13:54:27;1.80;;;1.40;;
25129;SDS011;13308;50.860;13.664;2022-08-21T13:56:58;2.10;;;1.27;;
25129;SDS011;13308;50.860;13.664;2022-08-21T13:59:27;2.97;;;1.70;;
25129;SDS011;13308;50.860;13.664;2022-08-21T14:04:59;1.85;;;1.73;;
25129;SDS011;13308;50.860;13.664;2022-08-21T14:07:30;4.18;;;1.92;;
25129;SDS011;13308;50.860;13.664;2022-08-21T14:10:05;2.60;;;2.00;;
25129;SDS011;13308;50.860;13.664;2022-08-21T14:12:47;2.40;;;1.58;;
25129;SDS011;13308;50.860;13.664;2022-08-21T14:15:17;3.70;;;1.70;;
25129;SDS011;13308;50.860;13.664;2022-08-21T14:17:47;2.45;;;1.98;;
25129;SDS011;13308;50.860;13.664;2022-08-21T14:20:25;4.35;;;2.28;;
25129;SDS011;13308;50.860;13.664;2022-08-21T14:22:56;2.35;;;1.70;;
25129;SDS011;13308;50.860;13.664;2022-08-21T14:30:39;2.70;;;1.50;;
25129;SDS011;13308;50.860;13.664;2022-08-21T14:33:04;2.20;;;1.58;;
25129;SDS011;13308;50.860;13.664;2022-08-21T14:35:35;2.38;;;1.75;;
25129;SDS011;13308;50.860;13.664;2022-08-21T14:38:00;2.05;;;1.80;;
25129;SDS011;13308;50.860;13.664;2022-08-21T14:40:26;2.50;;;1.70;;
25129;SDS011;13308;50.860;13.664;2022-08-21T14:42:51;3.05;;;1.70;;
25129;SDS011;13308;50.860;13.664;2022-08-21T14:45:18;2.53;;;1.73;;
25129;SDS011;13308;50.860;13.664;2022-08-21T14:47:48;3.03;;;1.70;;
25129;SDS011;13308;50.860;13.664;2022-08-21T14:50:13;3.03;;;1.70;;
25129;SDS011;13308;50.860;13.664;2022-08-21T14:52:39;1.40;;;1.30;;
25129;SDS011;13308;50.860;13.664;2022-08-21T14:55:06;3.25;;;1.83;;
25129;SDS011;13308;50.860;13.664;2022-08-21T14:57:33;2.20;;;1.48;;
25129;SDS011;13308;50.860;13.664;2022-08-21T14:59:59;3.05;;;1.60;;
25129;SDS011;13308;50.860;13.664;2022-08-21T15:02:25;3.03;;;1.65;;
25129;SDS011;13308;50.860;13.664;2022-08-21T15:04:51;2.20;;;1.70;;
25129;SDS011;13308;50.860;13.664;2022-08-21T15:07:16;2.67;;;1.75;;
25129;SDS011;13308;50.860;13.664;2022-08-21T15:09:42;4.78;;;1.80;;
25129;SDS011;13308;50.860;13.664;2022-08-21T15:12:07;2.55;;;1.80;;
25129;SDS011;13308;50.860;13.664;2022-08-21T15:14:34;3.22;;;1.40;;
25129;SDS011;13308;50.860;13.664;2022-08-21T15:17:03;2.03;;;1.83;;
25129;SDS011;13308;50.860;13.664;2022-08-21T15:19:31;1.85;;;1.58;;
25129;SDS011;13308;50.860;13.664;2022-08-21T15:21:56;2.88;;;1.95;;
25129;SDS011;13308;50.860;13.664;2022-08-21T15:24:22;3.65;;;1.88;;
25129;SDS011;13308;50.860;13.664;2022-08-21T15:26:47;2.60;;;1.80;;
25129;SDS011;13308;50.860;13.664;2022-08-21T15:29:13;3.13;;;1.85;;
25129;SDS011;13308;50.860;13.664;2022-08-21T15:31:58;3.25;;;2.20;;
25129;SDS011;13308;50.860;13.664;2022-08-21T15:34:27;3.85;;;2.22;;
25129;SDS011;13308;50.860;13.664;2022-08-21T15:36:54;2.97;;;1.80;;
25129;SDS011;13308;50.860;13.664;2022-08-21T15:39:20;3.03;;;2.33;;
25129;SDS011;13308;50.860;13.664;2022-08-21T15:41:46;2.80;;;1.98;;
25129;SDS011;13308;50.860;13.664;2022-08-21T15:44:11;5.65;;;2.55;;
25129;SDS011;13308;50.860;13.664;2022-08-21T15:46:38;4.43;;;2.13;;
25129;SDS011;13308;50.860;13.664;2022-08-21T15:49:05;3.88;;;2.08;;
25129;SDS011;13308;50.860;13.664;2022-08-21T15:51:31;2.28;;;2.00;;
25129;SDS011;13308;50.860;13.664;2022-08-21T15:53:57;4.22;;;3.03;;
25129;SDS011;13308;50.860;13.664;2022-08-21T15:56:24;4.63;;;3.47;;
25129;SDS011;13308;50.860;13.664;2022-08-21T15:58:57;3.78;;;2.40;;
25129;SDS011;13308;50.860;13.664;2022-08-21T16:01:26;1.95;;;1.70;;
25129;SDS011;13308;50.860;13.664;2022-08-21T16:03:52;2.30;;;2.00;;
25129;SDS011;13308;50.860;13.664;2022-08-21T16:06:19;2.53;;;2.17;;
25129;SDS011;13308;50.860;13.664;2022-08-21T16:08:45;2.03;;;1.30;;
25129;SDS011;13308;50.860;13.664;2022-08-21T16:11:14;1.85;;;1.75;;
25129;SDS011;13308;50.860;13.664;2022-08-21T16:13:41;2.35;;;1.83;;
25129;SDS011;13308;50.860;13.664;2022-08-21T16:16:12;2.95;;;2.15;;
25129;SDS011;13308;50.860;13.664;2022-08-21T16:18:43;4.18;;;2.00;;
25129;SDS011;13308;50.860;13.664;2022-08-21T16:21:08;4.47;;;1.70;;
25129;SDS011;13308;50.860;13.664;2022-08-21T16:23:34;2.20;;;2.00;;
25129;SDS011;13308;50.860;13.664;2022-08-21T16:26:03;2.10;;;1.90;;
25129;SDS011;13308;50.860;13.664;2022-08-21T16:28:30;1.90;;;1.80;;
25129;SDS011;13308;50.860;13.664;2022-08-21T16:30:58;2.47;;;1.73;;
25129;SDS011;13308;50.860;13.664;2022-08-21T16:35:55;3.42;;;1.85;;
25129;SDS011;13308;50.860;13.664;2022-08-21T16:38:20;4.47;;;1.80;;
25129;SDS011;13308;50.860;13.664;2022-08-21T16:40:46;2.13;;;1.92;;
25129;SDS011;13308;50.860;13.664;2022-08-21T16:43:11;3.78;;;2.20;;
25129;SDS011;13308;50.860;13.664;2022-08-21T16:45:37;2.88;;;1.70;;
25129;SDS011;13308;50.860;13.664;2022-08-21T16:48:03;2.00;;;1.90;;
25129;SDS011;13308;50.860;13.664;2022-08-21T16:50:33;1.70;;;1.60;;
25129;SDS011;13308;50.860;13.664;2022-08-21T16:52:59;2.38;;;1.98;;
25129;SDS011;13308;50.860;13.664;2022-08-21T16:55:25;2.10;;;1.95;;
25129;SDS011;13308;50.860;13.664;2022-08-21T16:57:51;2.63;;;2.00;;
25129;SDS011;13308;50.860;13.664;2022-08-21T17:00:18;2.13;;;1.90;;
25129;SDS011;13308;50.860;13.664;2022-08-21T17:02:45;2.22;;;2.00;;
25129;SDS011;13308;50.860;13.664;2022-08-21T17:05:12;3.35;;;1.95;;
25129;SDS011;13308;50.860;13.664;2022-08-21T17:07:38;2.78;;;2.45;;
25129;SDS011;13308;50.860;13.664;2022-08-21T17:10:05;4.43;;;3.22;;
25129;SDS011;13308;50.860;13.664;2022-08-21T17:12:33;2.50;;;2.30;;
25129;SDS011;13308;50.860;13.664;2022-08-21T17:15:01;3.85;;;2.15;;
25129;SDS011;13308;50.860;13.664;2022-08-21T17:17:33;6.20;;;3.20;;
25129;SDS011;13308;50.860;13.664;2022-08-21T17:19:59;3.95;;;3.03;;
25129;SDS011;13308;50.860;13.664;2022-08-21T17:22:25;6.32;;;3.03;;
25129;SDS011;13308;50.860;13.664;2022-08-21T17:24:50;3.53;;;3.22;;
25129;SDS011;13308;50.860;13.664;2022-08-21T17:27:16;4.80;;;2.97;;
25129;SDS011;13308;50.860;13.664;2022-08-21T17:29:44;5.72;;;2.75;;
25129;SDS011;13308;50.860;13.664;2022-08-21T17:32:10;3.70;;;2.20;;
